Time;durP1;ratioP1;P1;durP2;ratioP2;P2;SDS_P1;SDS_P2;PMS_P1;PMS_P2;Temp;Humidity;BMP_temperature;BMP_pressure;BME280_temperature;BME280_humidity;BME280_pressure;Samples;Min_cycle;Max_cycle;Signal;HPM_P1;HPM_P2
2023/02/03 00:00:30;;;;;;;17.80;8.20;;;;;;;1.70;89.61;100672.84;106895;1252;60027;-89
2023/02/03 00:02:57;;;;;;;11.50;6.70;;;;;;;1.66;89.75;100668.27;106831;1253;61373;-89
2023/02/03 00:05:27;;;;;;;10.30;6.30;;;;;;;1.60;89.65;100663.40;109066;1251;72394;-89
2023/02/03 00:07:54;;;;;;;10.20;6.60;;;;;;;1.57;89.78;100666.25;106821;1251;65349;-86
2023/02/03 00:10:21;;;;;;;9.90;5.60;;;;;;;1.53;89.90;100659.10;106959;1251;73562;-87
2023/02/03 00:12:51;;;;;;;10.70;6.10;;;;;;;1.49;90.06;100664.53;106876;1251;61216;-86
2023/02/03 00:15:21;;;;;;;8.90;5.80;;;;;;;1.46;90.08;100668.71;106890;1251;61333;-88
2023/02/03 00:17:49;;;;;;;6.50;5.10;;;;;;;1.46;90.36;100670.44;106983;1251;72942;-87
2023/02/03 00:20:16;;;;;;;6.30;4.90;;;;;;;1.48;90.36;100671.77;106950;1251;63385;-87
2023/02/03 00:22:45;;;;;;;14.20;5.10;;;;;;;1.48;90.45;100671.61;107919;1251;73792;-87
2023/02/03 00:25:12;;;;;;;10.50;4.80;;;;;;;1.47;90.56;100672.66;108838;1251;61368;-85
2023/02/03 00:27:41;;;;;;;8.30;4.90;;;;;;;1.44;90.44;100673.91;108797;1251;60142;-87
2023/02/03 00:30:09;;;;;;;8.50;5.00;;;;;;;1.43;90.53;100674.98;107706;1251;72087;-86
2023/02/03 00:32:36;;;;;;;6.80;4.50;;;;;;;1.43;90.67;100676.17;107557;1251;65236;-88
2023/02/03 00:35:04;;;;;;;7.10;4.90;;;;;;;1.43;90.54;100672.57;107315;1255;72648;-87
2023/02/03 00:37:31;;;;;;;9.80;6.00;;;;;;;1.41;90.55;100677.95;107257;1251;60650;-88
2023/02/03 00:39:58;;;;;;;8.10;4.50;;;;;;;1.38;90.49;100679.90;106727;1251;61306;-88
2023/02/03 00:42:25;;;;;;;9.70;4.20;;;;;;;1.34;90.70;100678.10;106500;1253;74518;-90
2023/02/03 00:44:52;;;;;;;5.80;4.70;;;;;;;1.30;91.00;100675.10;106522;1255;64767;-91
2023/02/03 00:47:19;;;;;;;5.80;4.20;;;;;;;1.24;91.23;100677.78;108779;1251;73608;-87
2023/02/03 00:49:46;;;;;;;6.70;4.10;;;;;;;1.22;91.52;100678.17;106619;1251;61169;-89
2023/02/03 00:52:13;;;;;;;7.50;4.80;;;;;;;1.20;91.83;100677.52;106990;1251;60414;-90
2023/02/03 00:54:40;;;;;;;8.00;4.10;;;;;;;1.19;92.06;100675.11;106463;1255;74187;-89
2023/02/03 00:57:07;;;;;;;14.30;4.40;;;;;;;1.20;92.34;100680.11;106366;1251;65219;-89
2023/02/03 00:59:34;;;;;;;6.10;3.80;;;;;;;1.21;92.34;100681.98;106504;1255;73764;-88
2023/02/03 01:02:02;;;;;;;8.30;3.60;;;;;;;1.24;92.55;100683.46;106470;1255;62192;-86
2023/02/03 01:04:30;;;;;;;6.30;4.00;;;;;;;1.27;92.36;100683.75;106484;1251;61301;-88
2023/02/03 01:06:58;;;;;;;5.60;3.70;;;;;;;1.31;92.24;100685.76;106391;1251;73814;-87
2023/02/03 01:09:27;;;;;;;5.50;3.60;;;;;;;1.33;92.28;100684.31;106382;1255;64828;-88
2023/02/03 01:11:54;;;;;;;8.20;4.70;;;;;;;1.33;92.21;100686.71;107544;1251;72051;-87
2023/02/03 01:14:21;;;;;;;7.50;4.40;;;;;;;1.34;92.27;100685.52;108384;1251;61044;-88
2023/02/03 01:16:48;;;;;;;6.60;4.50;;;;;;;1.34;92.24;100683.78;107265;1251;62439;-87
2023/02/03 01:19:17;;;;;;;6.20;4.00;;;;;;;1.33;92.37;100688.09;107915;1251;72925;-89
2023/02/03 01:21:44;;;;;;;7.60;4.60;;;;;;;1.34;92.21;100688.79;106795;1251;64121;-87
2023/02/03 01:24:13;;;;;;;7.20;4.40;;;;;;;1.33;92.29;100687.05;106365;1251;72657;-88
2023/02/03 01:26:42;;;;;;;7.30;5.30;;;;;;;1.32;92.17;100686.23;106509;1254;60871;-89
2023/02/03 01:29:11;;;;;;;8.10;5.60;;;;;;;1.31;92.32;100686.09;108362;1251;60146;-86
2023/02/03 01:31:40;;;;;;;7.20;5.50;;;;;;;1.30;92.23;100681.98;109334;1251;72890;-87
2023/02/03 01:34:11;;;;;;;6.00;4.20;;;;;;;1.31;92.31;100680.75;109287;1251;63509;-88
2023/02/03 01:36:38;;;;;;;10.80;5.60;;;;;;;1.31;92.39;100682.31;107929;1251;72653;-88
2023/02/03 01:39:06;;;;;;;7.40;5.10;;;;;;;1.31;92.49;100679.88;106693;1256;59753;-89
2023/02/03 01:41:36;;;;;;;9.40;5.80;;;;;;;1.28;92.36;100684.26;106528;1251;61563;-87
2023/02/03 01:44:38;;;;;;;7.30;4.90;;;;;;;1.24;92.57;100685.70;106676;1251;74599;-88
2023/02/03 01:47:16;;;;;;;6.40;5.00;;;;;;;1.21;92.53;100683.52;106946;1251;63709;-87
2023/02/03 01:49:49;;;;;;;8.80;4.80;;;;;;;1.18;92.71;100685.66;108754;1251;71691;-85
2023/02/03 01:52:17;;;;;;;5.80;4.30;;;;;;;1.15;93.00;100691.05;109034;1251;61212;-88
2023/02/03 01:54:45;;;;;;;7.20;5.30;;;;;;;1.13;93.41;100688.70;107236;1251;61267;-88
2023/02/03 01:57:49;;;;;;;5.60;4.30;;;;;;;1.11;93.55;100692.35;107078;1253;73953;-88
2023/02/03 02:00:18;;;;;;;8.10;4.70;;;;;;;1.08;93.79;100691.20;106600;1258;63784;-89
2023/02/03 02:02:45;;;;;;;7.60;4.70;;;;;;;1.06;94.08;100692.27;108099;1257;73655;-87
2023/02/03 02:05:24;;;;;;;6.10;4.70;;;;;;;1.09;94.27;100697.55;106517;1257;61157;-89
2023/02/03 02:07:51;;;;;;;5.80;4.60;;;;;;;1.11;94.43;100698.73;106912;1257;62268;-88
2023/02/03 02:10:19;;;;;;;7.70;4.40;;;;;;;1.14;94.63;100699.52;108199;1257;73042;-88
2023/02/03 02:12:47;;;;;;;6.70;5.50;;;;;;;1.18;94.96;100695.31;109041;1257;64163;-85
2023/02/03 02:15:14;;;;;;;6.00;4.50;;;;;;;1.27;95.37;100696.16;108469;1257;72763;-86
2023/02/03 02:18:06;;;;;;;12.50;6.30;;;;;;;1.38;95.37;100697.14;107771;1258;62091;-87
2023/02/03 02:21:01;;;;;;;7.10;4.30;;;;;;;1.50;95.56;100693.43;108491;1257;60073;-88
2023/02/03 02:24:06;;;;;;;7.00;5.40;;;;;;;1.60;95.59;100686.84;108570;1257;72009;-89
2023/02/03 02:26:37;;;;;;;;;;;;;;;1.71;95.35;100691.42;108703;1257;63898;-88
2023/02/03 02:29:45;;;;;;;7.70;5.20;;;;;;;1.78;95.27;100689.05;107722;1257;72882;-89
2023/02/03 02:32:37;;;;;;;8.30;4.70;;;;;;;1.81;95.11;100693.45;105633;1258;61569;-88
2023/02/03 02:35:33;;;;;;;7.60;5.10;;;;;;;1.81;95.12;100692.75;105666;1258;60308;-91
2023/02/03 02:38:06;;;;;;;7.20;5.70;;;;;;;1.81;95.20;100692.24;106129;1255;74198;-87
2023/02/03 02:40:56;;;;;;;7.90;5.40;;;;;;;1.80;95.04;100691.40;106148;1251;64700;-89
2023/02/03 02:43:36;;;;;;;7.90;5.10;;;;;;;1.79;95.16;100691.76;106219;1252;72380;-89
2023/02/03 02:46:24;;;;;;;8.20;6.20;;;;;;;1.77;95.11;100695.95;106308;1251;60914;-88
2023/02/03 02:48:59;;;;;;;7.90;5.20;;;;;;;1.76;95.24;100692.17;106473;1255;60336;-88
2023/02/03 02:51:26;;;;;;;7.90;5.80;;;;;;;1.77;95.31;100690.42;108180;1251;74234;-87
2023/02/03 02:53:56;;;;;;;11.60;6.00;;;;;;;1.78;95.43;100690.05;108830;1251;63780;-87
2023/02/03 02:56:25;;;;;;;10.80;6.40;;;;;;;1.81;95.46;100685.52;109475;1251;72711;-88
2023/02/03 02:58:52;;;;;;;10.10;5.70;;;;;;;1.84;95.35;100686.83;108554;1251;61186;-88
2023/02/03 03:01:20;;;;;;;8.20;6.20;;;;;;;1.86;95.18;100684.02;109637;1251;60883;-89
2023/02/03 03:03:47;;;;;;;14.40;7.00;;;;;;;1.90;95.13;100685.13;109699;1251;74079;-88
2023/02/03 03:06:28;;;;;;;14.90;6.70;;;;;;;1.94;95.02;100685.05;108527;1252;63845;-87
2023/02/03 03:09:04;;;;;;;10.20;6.60;;;;;;;2.01;95.17;100683.51;106804;1251;73737;-87
2023/02/03 03:11:35;;;;;;;15.40;7.20;;;;;;;2.06;94.98;100688.89;106423;1251;60851;-86
2023/02/03 03:14:02;;;;;;;12.30;6.50;;;;;;;2.11;94.74;100683.43;108147;1251;60193;-86
2023/02/03 03:16:29;;;;;;;9.70;6.20;;;;;;;2.16;94.49;100686.95;107625;1251;73675;-88
2023/02/03 03:19:08;;;;;;;10.80;6.70;;;;;;;2.20;94.16;100689.09;107343;1251;63595;-87
2023/02/03 03:21:43;;;;;;;15.40;7.10;;;;;;;2.21;93.96;100688.88;106993;1251;73628;-88
2023/02/03 03:24:11;;;;;;;11.70;5.60;;;;;;;2.24;93.72;100684.31;106453;1251;60418;-90
2023/02/03 03:26:39;;;;;;;13.60;5.90;;;;;;;2.21;93.18;100689.58;106387;1251;61848;-88
2023/02/03 03:29:18;;;;;;;10.50;6.00;;;;;;;2.17;92.86;100691.91;107435;1251;73788;-88
2023/02/03 03:31:45;;;;;;;12.70;5.90;;;;;;;2.17;92.71;100694.52;106414;1251;64907;-88
2023/02/03 03:34:13;;;;;;;9.50;5.10;;;;;;;2.14;92.45;100694.39;106568;1251;72402;-88
2023/02/03 03:36:53;;;;;;;8.30;5.70;;;;;;;2.05;91.97;100691.18;106557;1255;61140;-88
2023/02/03 03:39:55;;;;;;;10.00;5.20;;;;;;;1.95;91.94;100694.33;108424;1251;60332;-88
2023/02/03 03:42:31;;;;;;;11.30;6.00;;;;;;;1.90;92.02;100698.42;107683;1257;74308;-87
2023/02/03 03:45:01;;;;;;;9.90;5.50;;;;;;;1.85;92.04;100702.66;106529;1260;65339;-89
2023/02/03 03:47:41;;;;;;;7.80;4.70;;;;;;;1.85;92.33;100700.77;106095;1257;72724;-88
2023/02/03 03:50:18;;;;;;;11.10;5.30;;;;;;;1.87;92.20;100699.52;106612;1257;62386;-89
2023/02/03 03:52:45;;;;;;;10.90;4.70;;;;;;;1.88;92.16;100700.17;107024;1257;60939;-88
2023/02/03 03:55:13;;;;;;;7.40;4.60;;;;;;;1.88;91.92;100700.86;106060;1257;74811;-88
2023/02/03 03:57:53;;;;;;;8.50;5.50;;;;;;;1.86;92.02;100701.09;106012;1260;64901;-88
2023/02/03 04:00:20;;;;;;;8.00;5.00;;;;;;;1.79;91.88;100705.05;106393;1257;73078;-89
2023/02/03 04:02:50;;;;;;;9.00;5.50;;;;;;;1.67;91.71;100711.84;106424;1257;60623;-86
2023/02/03 04:05:19;;;;;;;8.20;5.10;;;;;;;1.55;91.91;100709.34;106574;1260;61101;-91
2023/02/03 04:07:46;;;;;;;6.90;4.80;;;;;;;1.45;92.11;100709.05;106010;1257;74650;-87
2023/02/03 04:10:33;;;;;;;8.00;4.50;;;;;;;1.32;92.51;100703.98;106830;1257;64789;-88
2023/02/03 04:13:00;;;;;;;6.00;4.20;;;;;;;1.25;92.90;100709.27;105970;1257;72650;-88
2023/02/03 04:15:29;;;;;;;6.40;4.00;;;;;;;1.19;93.33;100705.61;106439;1257;62064;-89
2023/02/03 04:17:56;;;;;;;5.00;3.30;;;;;;;1.17;93.60;100706.34;106289;1262;60309;-87
2023/02/03 04:20:23;;;;;;;5.10;3.50;;;;;;;1.17;93.92;100707.90;107131;1256;74822;-88
2023/02/03 04:22:51;;;;;;;6.20;3.80;;;;;;;1.16;93.97;100703.45;108336;1251;63568;-87
2023/02/03 04:25:26;;;;;;;6.60;4.20;;;;;;;1.16;94.11;100702.42;106734;1251;73643;-88
2023/02/03 04:27:54;;;;;;;9.00;5.60;;;;;;;1.18;94.26;100705.13;106799;1251;62321;-88
2023/02/03 04:30:21;;;;;;;7.90;5.10;;;;;;;1.17;94.30;100701.16;107800;1251;60355;-86
2023/02/03 04:32:48;;;;;;;11.30;7.50;;;;;;;1.20;94.37;100705.42;108172;1256;74135;-88
2023/02/03 04:35:15;;;;;;;12.80;8.70;;;;;;;1.20;94.23;100708.18;107020;1253;65381;-87
2023/02/03 04:37:43;;;;;;;10.20;6.70;;;;;;;1.20;94.33;100712.31;107971;1251;73802;-85
2023/02/03 04:40:10;;;;;;;14.90;10.90;;;;;;;1.21;94.39;100717.63;107490;1254;60952;-87
2023/02/03 04:42:38;;;;;;;5.80;4.50;;;;;;;1.22;94.18;100716.75;109709;1251;60371;-87
2023/02/03 04:45:06;;;;;;;7.40;4.50;;;;;;;1.21;94.11;100710.21;109216;1251;73688;-90
2023/02/03 04:47:36;;;;;;;7.60;4.40;;;;;;;1.16;93.98;100713.06;106739;1251;63634;-90
2023/02/03 04:50:04;;;;;;;7.20;4.50;;;;;;;1.13;93.94;100712.62;106756;1251;72551;-88
2023/02/03 04:52:31;;;;;;;7.30;5.50;;;;;;;1.10;94.05;100714.40;107254;1253;63062;-88
2023/02/03 04:54:59;;;;;;;10.50;7.20;;;;;;;1.11;94.23;100711.98;106614;1253;61357;-86
2023/02/03 04:57:25;;;;;;;7.30;4.90;;;;;;;1.15;94.15;100716.20;106741;1251;74281;-88
2023/02/03 04:59:53;;;;;;;7.50;5.10;;;;;;;1.15;94.00;100716.02;107103;1251;63688;-87
2023/02/03 05:02:20;;;;;;;6.90;4.50;;;;;;;1.14;93.92;100715.71;108226;1251;73663;-88
2023/02/03 05:04:47;;;;;;;10.00;6.40;;;;;;;1.12;93.79;100716.42;109028;1251;61322;-87
2023/02/03 05:07:15;;;;;;;7.80;5.60;;;;;;;1.03;93.31;100718.83;106675;1251;62103;-90
2023/02/03 05:09:43;;;;;;;10.40;6.40;;;;;;;0.89;93.35;100716.17;106843;1251;74483;-86
2023/02/03 05:12:11;;;;;;;9.60;6.20;;;;;;;0.77;93.67;100715.70;106729;1251;65119;-88
2023/02/03 05:14:39;;;;;;;12.50;7.90;;;;;;;0.69;94.20;100715.33;107464;1251;72703;-89
2023/02/03 05:17:07;;;;;;;12.70;7.90;;;;;;;0.60;94.68;100715.64;107670;1251;62821;-87
2023/02/03 05:19:34;;;;;;;16.70;11.20;;;;;;;0.55;95.06;100724.52;109096;1251;60110;-87
2023/02/03 05:22:01;;;;;;;10.30;6.20;;;;;;;0.54;95.53;100726.25;108180;1251;73806;-89
2023/02/03 05:24:29;;;;;;;8.50;5.60;;;;;;;0.52;95.89;100729.89;108388;1251;63559;-86
2023/02/03 05:26:56;;;;;;;8.20;4.30;;;;;;;0.51;96.09;100733.02;108406;1253;72543;-87
2023/02/03 05:29:24;;;;;;;5.90;5.30;;;;;;;0.48;96.14;100733.08;108032;1251;61166;-89
2023/02/03 05:31:50;;;;;;;4.90;4.40;;;;;;;0.44;96.10;100735.38;108005;1251;61893;-86
2023/02/03 05:34:18;;;;;;;7.00;5.00;;;;;;;0.39;96.26;100739.06;107698;1251;73621;-87
2023/02/03 05:36:50;;;;;;;6.40;4.90;;;;;;;0.36;96.45;100742.55;107925;1251;63587;-86
2023/02/03 05:39:17;;;;;;;4.60;4.00;;;;;;;0.34;96.69;100743.27;107841;1251;73754;-87
2023/02/03 05:41:53;;;;;;;7.10;4.60;;;;;;;0.32;96.93;100749.16;107633;1251;62672;-86
2023/02/03 05:44:26;;;;;;;4.60;3.50;;;;;;;0.29;97.20;100756.06;106611;1251;61095;-89
2023/02/03 05:46:53;;;;;;;7.30;4.50;;;;;;;0.28;97.40;100760.38;108504;1251;74745;-87
2023/02/03 05:49:23;;;;;;;7.20;4.70;;;;;;;0.31;97.77;100763.08;108217;1251;63775;-90
2023/02/03 05:51:53;;;;;;;12.20;9.10;;;;;;;0.33;98.10;100758.23;107721;1253;72495;-89
2023/02/03 05:54:21;;;;;;;7.30;4.80;;;;;;;0.36;98.20;100761.64;107666;1251;61653;-90
2023/02/03 05:56:48;;;;;;;7.50;5.30;;;;;;;0.38;98.45;100757.31;107846;1251;60610;-88
2023/02/03 05:59:16;;;;;;;10.70;5.90;;;;;;;0.43;98.69;100758.78;107891;1251;73890;-89
2023/02/03 06:01:43;;;;;;;7.80;5.10;;;;;;;0.49;98.92;100761.27;108679;1251;64730;-87
2023/02/03 06:04:10;;;;;;;9.90;5.30;;;;;;;0.55;98.96;100763.90;108488;1253;72587;-87
2023/02/03 06:06:41;;;;;;;8.80;5.40;;;;;;;0.62;99.19;100764.14;108509;1251;61217;-88
2023/02/03 06:09:09;;;;;;;5.90;3.80;;;;;;;0.68;99.34;100769.05;109395;1251;61346;-86
2023/02/03 06:11:40;;;;;;;7.00;5.30;;;;;;;0.71;99.19;100771.39;108812;1251;73646;-88
2023/02/03 06:14:23;;;;;;;8.80;4.30;;;;;;;0.74;99.29;100773.58;108017;1253;63776;-88
2023/02/03 06:16:50;;;;;;;5.40;3.40;;;;;;;0.76;99.31;100774.22;107868;1251;72537;-88
2023/02/03 06:19:19;;;;;;;7.70;5.10;;;;;;;0.77;99.32;100775.92;107915;1258;61863;-89
2023/02/03 06:21:48;;;;;;;8.30;5.50;;;;;;;0.80;99.43;100781.90;107860;1254;60434;-88
2023/02/03 06:24:20;;;;;;;12.70;7.40;;;;;;;0.84;99.31;100779.42;107426;1254;72742;-89
2023/02/03 06:26:47;;;;;;;13.50;8.50;;;;;;;0.92;99.57;100776.70;107337;1254;64846;-90
2023/02/03 06:29:15;;;;;;;11.00;6.00;;;;;;;0.99;99.52;100777.10;107910;1254;73585;-88
2023/02/03 06:31:42;;;;;;;10.40;6.30;;;;;;;1.08;99.57;100783.46;108590;1254;60782;-88
2023/02/03 06:34:10;;;;;;;12.80;8.40;;;;;;;1.16;99.39;100785.91;107668;1254;61055;-87
2023/02/03 06:36:37;;;;;;;10.70;6.30;;;;;;;1.22;99.22;100787.01;108087;1258;73869;-87
2023/02/03 06:39:05;;;;;;;11.30;7.20;;;;;;;1.28;99.18;100789.99;107416;1260;63658;-89
2023/02/03 06:41:33;;;;;;;11.50;7.20;;;;;;;1.33;98.99;100789.04;107099;1260;73063;-89
2023/02/03 06:44:00;;;;;;;13.30;6.80;;;;;;;1.39;98.95;100790.48;107153;1258;62738;-89
2023/02/03 06:46:29;;;;;;;12.90;6.80;;;;;;;1.44;98.72;100799.16;107213;1256;61222;-89
2023/02/03 06:48:58;;;;;;;9.90;6.20;;;;;;;1.47;98.55;100802.38;107096;1256;74854;-90
2023/02/03 06:51:25;;;;;;;11.00;6.60;;;;;;;1.49;98.60;100807.85;107380;1256;63619;-89
2023/02/03 06:53:53;;;;;;;7.60;5.20;;;;;;;1.54;98.46;100809.48;107373;1251;72443;-88
2023/02/03 06:56:20;;;;;;;10.30;5.20;;;;;;;1.59;98.37;100809.20;108623;1251;61143;-89
2023/02/03 06:58:48;;;;;;;8.30;6.00;;;;;;;1.60;98.13;100806.77;109397;1251;58530;-87
2023/02/03 07:01:15;;;;;;;10.20;5.60;;;;;;;1.65;98.16;100804.95;107666;1253;72716;-89
2023/02/03 07:03:43;;;;;;;12.30;5.80;;;;;;;1.69;97.97;100807.62;107425;1252;63786;-88
2023/02/03 07:06:10;;;;;;;11.30;7.10;;;;;;;1.70;97.61;100801.06;106967;1257;72198;-88
2023/02/03 07:08:38;;;;;;;11.30;6.60;;;;;;;1.72;97.75;100803.59;107175;1251;61267;-88
2023/02/03 07:11:07;;;;;;;8.10;4.80;;;;;;;1.76;97.66;100804.02;107298;1253;60349;-87
2023/02/03 07:13:34;;;;;;;10.30;5.10;;;;;;;1.77;97.59;100802.45;109307;1251;73121;-89
2023/02/03 07:16:02;;;;;;;8.40;5.00;;;;;;;1.79;97.42;100801.39;107501;1251;64530;-90
2023/02/03 07:18:30;;;;;;;8.10;4.80;;;;;;;1.78;97.34;100801.23;107386;1253;74223;-88
2023/02/03 07:21:15;;;;;;;;;;;;;;;1.79;97.31;100799.49;107643;1252;61192;-89
2023/02/03 07:23:43;;;;;;;18.30;9.50;;;;;;;1.80;97.24;100801.89;107678;1254;59890;-88
2023/02/03 07:26:10;;;;;;;20.00;10.50;;;;;;;1.82;97.26;100800.80;108549;1251;74793;-87
2023/02/03 07:28:39;;;;;;;19.50;10.10;;;;;;;1.87;97.25;100799.84;108217;1253;63938;-88
2023/02/03 07:31:09;;;;;;;12.60;8.90;;;;;;;1.93;97.19;100798.15;107184;1253;72610;-90
2023/02/03 07:33:37;;;;;;;20.80;11.00;;;;;;;2.01;97.02;100793.85;107650;1256;62084;-90
2023/02/03 07:36:06;;;;;;;17.60;9.80;;;;;;;2.08;96.93;100790.41;107844;1251;60886;-90
2023/02/03 07:39:09;;;;;;;26.30;11.70;;;;;;;2.20;96.57;100790.50;108054;1251;73667;-88
2023/02/03 07:41:37;;;;;;;16.90;9.50;;;;;;;2.33;96.35;100789.15;107799;1258;65343;-90
2023/02/03 07:44:05;;;;;;;11.80;7.40;;;;;;;2.48;96.42;100787.27;107650;1253;71961;-89
2023/02/03 07:46:35;;;;;;;8.50;6.80;;;;;;;2.64;95.68;100786.52;108603;1252;60255;-88
2023/02/03 07:49:04;;;;;;;15.30;7.10;;;;;;;2.73;94.60;100783.20;109408;1251;60312;-90
2023/02/03 07:53:02;;;;;;;10.60;6.10;;;;;;;2.86;93.83;100782.70;108907;1261;73003;-88
2023/02/03 07:55:40;;;;;;;10.80;6.90;;;;;;;2.96;93.24;100782.96;108946;1261;63801;-88
2023/02/03 07:58:12;;;;;;;11.50;6.10;;;;;;;3.11;92.75;100779.65;107902;1261;72576;-87
2023/02/03 08:00:44;;;;;;;8.20;5.80;;;;;;;3.26;92.19;100780.61;107429;1267;61479;-90
2023/02/03 08:03:13;;;;;;;9.60;5.30;;;;;;;3.41;91.31;100775.03;107705;1264;60395;-87
2023/02/03 08:05:41;;;;;;;9.20;5.20;;;;;;;3.48;90.16;100775.15;107865;1267;73797;-88
2023/02/03 08:08:26;;;;;;;7.60;5.70;;;;;;;3.45;89.45;100768.52;107436;1267;63695;-89
2023/02/03 08:11:04;;;;;;;10.00;7.20;;;;;;;3.44;89.17;100772.85;107262;1266;72638;-90
2023/02/03 08:13:33;;;;;;;7.10;4.20;;;;;;;3.45;89.31;100769.71;107121;1267;62107;-87
2023/02/03 08:16:02;;;;;;;5.80;4.70;;;;;;;3.48;89.34;100772.40;107135;1265;60348;-87
2023/02/03 08:18:30;;;;;;;8.80;5.10;;;;;;;3.52;89.10;100769.02;107362;1267;73977;-90
2023/02/03 08:21:03;;;;;;;7.20;4.90;;;;;;;3.56;89.02;100776.34;107050;1267;63505;-89
2023/02/03 08:23:31;;;;;;;7.20;4.70;;;;;;;3.56;88.32;100779.95;107387;1264;72486;-88
2023/02/03 08:25:58;;;;;;;10.40;5.60;;;;;;;3.55;88.01;100778.07;107208;1263;62309;-88
2023/02/03 08:28:26;;;;;;;9.20;5.20;;;;;;;3.57;87.90;100780.98;107254;1263;60386;-88
2023/02/03 08:30:56;;;;;;;6.90;4.90;;;;;;;3.61;88.15;100777.90;107657;1266;73737;-88
2023/02/03 08:33:24;;;;;;;5.40;3.70;;;;;;;3.69;87.91;100780.11;107285;1260;63761;-89
2023/02/03 08:35:51;;;;;;;4.50;3.10;;;;;;;3.74;87.43;100775.46;107202;1263;71555;-87
2023/02/03 08:38:18;;;;;;;5.70;3.50;;;;;;;3.79;87.16;100777.22;108588;1260;59588;-88
2023/02/03 08:40:45;;;;;;;5.80;4.20;;;;;;;3.83;86.92;100777.63;107518;1263;62060;-88
2023/02/03 08:43:13;;;;;;;8.50;4.90;;;;;;;3.87;86.64;100779.41;107019;1259;74801;-87
2023/02/03 08:45:45;;;;;;;6.80;5.40;;;;;;;3.89;86.01;100776.92;106352;1265;64183;-89
2023/02/03 08:48:13;;;;;;;5.40;4.40;;;;;;;3.90;85.66;100772.91;106727;1261;72057;-89
2023/02/03 08:50:43;;;;;;;6.50;4.80;;;;;;;3.89;84.78;100770.87;107265;1264;60887;-85
2023/02/03 08:53:12;;;;;;;4.70;3.70;;;;;;;3.88;84.42;100769.34;106889;1260;60490;-91
2023/02/03 08:55:41;;;;;;;4.90;4.40;;;;;;;3.88;84.12;100762.41;106514;1261;73720;-87
2023/02/03 08:58:08;;;;;;;8.20;5.70;;;;;;;3.89;83.86;100757.20;107347;1261;64871;-89
2023/02/03 09:00:37;;;;;;;14.30;7.50;;;;;;;3.90;83.79;100751.30;107827;1263;73260;-88
2023/02/03 09:05:47;;;;;;;6.70;6.00;;;;;;;3.92;83.47;100757.63;106458;1277;613171;-88
2023/02/03 09:08:33;;;;;;;;;;;;;;;3.88;82.96;100760.67;107383;1266;60680;-88
2023/02/03 09:11:09;;;;;;;11.60;6.30;;;;;;;3.83;82.36;100758.07;107955;1259;60042;-88
2023/02/03 09:13:38;;;;;;;8.20;5.30;;;;;;;3.81;82.74;100761.45;107941;1256;73132;-89
2023/02/03 09:16:06;;;;;;;14.60;7.70;;;;;;;3.82;82.50;100756.54;108135;1256;64787;-88
2023/02/03 09:18:34;;;;;;;6.50;5.60;;;;;;;3.89;82.44;100760.69;107464;1253;634136;-89
2023/02/03 09:21:07;;;;;;;9.70;6.80;;;;;;;3.93;81.80;100760.70;108711;1251;60994;-88
2023/02/03 09:23:36;;;;;;;11.10;6.10;;;;;;;4.00;81.83;100759.48;108651;1256;60948;-87
2023/02/03 09:26:09;;;;;;;8.60;5.40;;;;;;;4.08;81.42;100759.23;108588;1252;70886;-88
2023/02/03 09:28:36;;;;;;;7.20;4.40;;;;;;;4.15;81.06;100760.23;108944;1252;63876;-88
2023/02/03 09:31:18;;;;;;;7.40;4.70;;;;;;;4.20;80.91;100761.98;107771;1252;72415;-87
2023/02/03 09:33:47;;;;;;;5.50;4.60;;;;;;;4.25;80.92;100755.60;107810;1256;59638;-88
2023/02/03 09:36:14;;;;;;;8.50;5.00;;;;;;;4.33;80.91;100750.48;108109;1253;60231;-88
2023/02/03 09:38:44;;;;;;;8.40;5.70;;;;;;;4.39;80.60;100746.47;107130;1253;73798;-88
2023/02/03 09:41:41;;;;;;;4.10;3.50;;;;;;;4.47;80.54;100741.00;106800;1253;63874;-89
2023/02/03 09:44:24;;;;;;;5.10;4.20;;;;;;;4.77;80.30;100737.43;106927;1253;73547;-89
2023/02/03 09:47:03;;;;;;;4.60;3.80;;;;;;;5.31;79.15;100744.54;107707;1252;62112;-88
2023/02/03 09:49:46;;;;;;;3.40;3.10;;;;;;;5.96;76.82;100743.70;107616;1259;60149;-88
2023/02/03 09:52:21;;;;;;;5.10;4.20;;;;;;;6.67;74.74;100738.44;107344;1252;73890;-88
2023/02/03 09:55:00;;;;;;;7.40;4.30;;;;;;;7.34;72.30;100740.07;108170;1256;64933;-89
2023/02/03 09:57:36;;;;;;;3.90;3.10;;;;;;;7.97;69.88;100744.29;108122;1252;71330;-87
2023/02/03 10:00:43;;;;;;;4.50;3.40;;;;;;;8.59;67.64;100734.34;108320;1253;60130;-88
2023/02/03 10:03:15;;;;;;;3.40;3.10;;;;;;;9.35;65.21;100737.60;108115;1252;60691;-87
2023/02/03 10:05:50;;;;;;;4.70;3.90;;;;;;;9.96;63.46;100727.35;109231;1251;72724;-89
2023/02/03 10:08:27;;;;;;;3.90;3.30;;;;;;;10.56;60.89;100726.92;108400;1253;63667;-90
2023/02/03 10:11:14;;;;;;;4.80;3.50;;;;;;;11.07;58.54;100726.56;108482;1256;72470;-89
2023/02/03 10:14:08;;;;;;;5.40;3.10;;;;;;;11.48;55.98;100723.31;109513;1253;60030;-86
2023/02/03 10:16:42;;;;;;;4.70;3.80;;;;;;;11.79;55.01;100724.21;109499;1252;60231;-85
2023/02/03 10:19:15;;;;;;;5.00;4.30;;;;;;;12.10;53.83;100718.03;108875;1253;72708;-88
2023/02/03 10:21:57;;;;;;;6.50;4.20;;;;;;;12.31;52.07;100714.77;108682;1253;63727;-88
2023/02/03 10:24:49;;;;;;;3.30;3.00;;;;;;;12.29;51.65;100714.35;107996;1252;72826;-88
2023/02/03 10:27:19;;;;;;;5.40;4.80;;;;;;;12.26;51.38;100706.15;108316;1253;60183;-89
2023/02/03 10:30:12;;;;;;;4.90;4.20;;;;;;;12.26;50.38;100708.10;108911;1254;59530;-89
2023/02/03 10:32:43;;;;;;;4.40;3.80;;;;;;;12.10;50.25;100695.59;108367;1253;73362;-90
2023/02/03 10:35:14;;;;;;;3.30;2.90;;;;;;;11.98;50.45;100704.10;108281;1251;64694;-87
2023/02/03 10:37:44;;;;;;;3.80;3.00;;;;;;;11.87;50.60;100701.66;108442;1251;71576;-89
2023/02/03 10:40:13;;;;;;;3.80;3.30;;;;;;;11.81;50.79;100704.80;107471;1253;60321;-89
2023/02/03 23:05:30;;;;;;;26.40;16.80;;;;;;;2.12;89.48;100417.50;105724;1291;611658;-87
2023/02/03 23:07:58;;;;;;;32.30;18.20;;;;;;;2.16;89.20;100418.43;107207;1266;60362;-88
2023/02/03 23:10:29;;;;;;;27.20;16.80;;;;;;;2.20;89.16;100418.13;106649;1262;60668;-88
2023/02/03 23:12:59;;;;;;;27.60;16.70;;;;;;;2.24;88.82;100416.29;106186;1257;72449;-86
2023/02/03 23:15:28;;;;;;;26.30;17.30;;;;;;;2.26;88.48;100415.19;106631;1261;64852;-89
2023/02/03 23:17:57;;;;;;;28.50;19.30;;;;;;;2.24;88.18;100415.95;105925;1254;1175187;-89
2023/02/03 23:20:24;;;;;;;31.70;19.40;;;;;;;2.18;88.13;100413.89;107883;1254;61530;-89
2023/02/03 23:22:52;;;;;;;31.70;18.80;;;;;;;2.14;88.15;100415.88;107969;1259;60076;-89
2023/02/03 23:25:21;;;;;;;32.30;19.50;;;;;;;2.09;88.22;100414.83;108892;1255;73426;-87
2023/02/03 23:27:49;;;;;;;34.10;19.10;;;;;;;2.04;88.40;100415.81;109555;1258;63871;-88
2023/02/03 23:30:18;;;;;;;32.90;18.40;;;;;;;2.02;88.52;100416.23;109626;1254;72594;-89
2023/02/03 23:32:45;;;;;;;33.50;20.40;;;;;;;1.99;88.50;100415.28;109132;1254;60895;-89
2023/02/03 23:38:00;;;;;;;37.30;21.40;;;;;;;1.99;88.57;100417.36;107374;1254;73343;-89
2023/02/03 23:40:27;;;;;;;32.80;20.10;;;;;;;1.99;88.57;100414.58;107119;1254;64080;-88
2023/02/03 23:42:55;;;;;;;33.70;20.00;;;;;;;1.98;88.49;100415.98;107107;1259;71468;-89
2023/02/03 23:45:23;;;;;;;39.00;24.20;;;;;;;1.97;88.15;100418.25;107571;1259;61147;-89
2023/02/03 23:47:51;;;;;;;32.40;20.00;;;;;;;1.96;88.29;100410.20;109085;1254;61275;-90
2023/02/03 23:50:19;;;;;;;39.10;21.40;;;;;;;1.95;88.25;100408.85;107374;1259;73228;-88
2023/02/03 23:52:47;;;;;;;34.80;20.30;;;;;;;1.92;88.14;100409.78;107800;1254;63845;-88
2023/02/03 23:55:17;;;;;;;38.90;22.70;;;;;;;1.88;88.02;100411.80;107019;1254;72462;-90
2023/02/03 23:57:45;;;;;;;41.30;22.60;;;;;;;1.85;87.88;100409.46;108000;1254;60717;-89
